createdAt,value
2024-01-06T00:01:23.037Z,96531.63
2024-01-06T00:03:53.314Z,96537.84
2024-01-06T00:06:21.549Z,96540.56
2024-01-06T00:08:54.776Z,96540.81
2024-01-06T00:11:24.266Z,96545.63
2024-01-06T00:13:52.523Z,96541.63
2024-01-06T00:16:22.433Z,96534.97
2024-01-06T00:18:52.874Z,96532.53
2024-01-06T00:21:21.219Z,96534.75
2024-01-06T00:23:49.418Z,96536.88
2024-01-06T00:26:17.604Z,96527.81
2024-01-06T00:28:45.765Z,96535.00
2024-01-06T00:31:14.030Z,96529.44
2024-01-06T00:33:42.313Z,96531.69
2024-01-06T00:36:12.255Z,96536.56
2024-01-06T00:38:40.531Z,96533.78
2024-01-06T00:41:08.708Z,96529.91
2024-01-06T00:43:37.127Z,96527.81
2024-01-06T00:46:05.769Z,96521.66
2024-01-06T00:48:34.306Z,96531.19
2024-01-06T00:51:02.633Z,96530.25
2024-01-06T00:53:32.186Z,96532.78
2024-01-06T00:56:00.539Z,96532.16
2024-01-06T00:58:28.700Z,96533.59
2024-01-06T01:01:00.564Z,96532.19
2024-01-06T01:03:31.648Z,96526.75
2024-01-06T01:06:00.597Z,96536.38
2024-01-06T01:08:29.036Z,96531.31
2024-01-06T01:10:59.020Z,96547.19
2024-01-06T01:13:27.342Z,96547.38
2024-01-06T01:15:55.592Z,96551.88
2024-01-06T01:18:24.089Z,96552.03
2024-01-06T01:20:52.292Z,96557.28
2024-01-06T01:23:20.464Z,96541.97
2024-01-06T01:25:48.592Z,96551.53
2024-01-06T01:28:18.206Z,96554.50
2024-01-06T01:30:46.453Z,96550.78
2024-01-06T01:33:15.053Z,96556.84
2024-01-06T01:35:43.276Z,96548.00
2024-01-06T01:38:11.449Z,96550.34
2024-01-06T01:40:39.634Z,96551.94
2024-01-06T01:43:07.991Z,96552.84
2024-01-06T01:45:37.609Z,96551.50
2024-01-06T01:48:06.903Z,96548.91
2024-01-06T01:50:35.881Z,96550.44
2024-01-06T01:53:04.470Z,96548.91
2024-01-06T01:55:32.914Z,96540.31
2024-01-06T01:58:01.287Z,96538.91
2024-01-06T02:00:30.706Z,96538.41
2024-01-06T02:03:02.185Z,96536.53
2024-01-06T02:05:32.785Z,96533.66
2024-01-06T02:08:01.163Z,96527.38
2024-01-06T02:10:30.165Z,96524.09
2024-01-06T02:12:58.449Z,96527.66
2024-01-06T02:15:26.830Z,96528.94
2024-01-06T02:17:55.151Z,96531.47
2024-01-06T02:20:27.508Z,96535.31
2024-01-06T02:22:58.007Z,96527.50
2024-01-06T02:25:26.459Z,96534.66
2024-01-06T02:27:54.672Z,96534.97
2024-01-06T02:30:23.065Z,96535.75
2024-01-06T02:32:51.425Z,96544.75
2024-01-06T02:35:19.749Z,96542.69
2024-01-06T02:37:47.965Z,96542.63
2024-01-06T02:40:17.649Z,96538.25
2024-01-06T02:42:45.870Z,96538.38
2024-01-06T02:45:14.245Z,96532.72
2024-01-06T02:47:42.417Z,96538.34
2024-01-06T02:50:11.082Z,96536.47
2024-01-06T02:52:39.588Z,96539.44
2024-01-06T02:55:08.944Z,96536.06
2024-01-06T02:57:39.884Z,96546.19
2024-01-06T03:00:10.290Z,96549.88
2024-01-06T03:02:38.670Z,96548.25
2024-01-06T03:05:07.851Z,96546.72
2024-01-06T03:07:36.064Z,96547.19
2024-01-06T03:10:04.634Z,96549.56
2024-01-06T03:12:33.429Z,96547.84
2024-01-06T03:15:03.077Z,96541.31
2024-01-06T03:17:31.451Z,96546.09
2024-01-06T03:19:59.777Z,96530.31
2024-01-06T03:22:28.039Z,96529.50
2024-01-06T03:24:56.583Z,96536.47
2024-01-06T03:27:25.160Z,96537.72
2024-01-06T03:29:53.504Z,96544.31
2024-01-06T03:32:23.925Z,96546.22
2024-01-06T03:34:52.205Z,96555.03
2024-01-06T03:37:20.392Z,96542.69
2024-01-06T03:39:48.660Z,96548.00
2024-01-06T03:42:17.155Z,96550.88
2024-01-06T03:44:45.317Z,96550.25
2024-01-06T03:47:13.624Z,96553.44
2024-01-06T03:49:43.303Z,96549.47
2024-01-06T03:52:11.542Z,96553.94
2024-01-06T03:54:40.042Z,96560.22
2024-01-06T03:57:08.395Z,96553.22
2024-01-06T03:59:36.589Z,96553.88
2024-01-06T04:02:04.966Z,96557.66
2024-01-06T04:04:33.228Z,96553.34
2024-01-06T04:07:03.349Z,96559.06
2024-01-06T04:09:31.596Z,96560.94
2024-01-06T04:12:01.842Z,96570.91
2024-01-06T04:14:30.023Z,96560.69
2024-01-06T04:16:58.261Z,96573.00
2024-01-06T04:19:26.754Z,96573.81
2024-01-06T04:21:55.361Z,96569.66
2024-01-06T04:24:24.900Z,96572.25
2024-01-06T04:26:53.182Z,96582.72
2024-01-06T04:29:21.391Z,96579.69
2024-01-06T04:31:49.776Z,96588.75
2024-01-06T04:34:18.093Z,96590.00
2024-01-06T04:36:46.350Z,96591.72
2024-01-06T04:39:14.884Z,96593.31
2024-01-06T04:41:44.476Z,96597.06
2024-01-06T04:44:12.729Z,96595.28
2024-01-06T04:46:40.968Z,96594.34
2024-01-06T04:49:09.286Z,96599.00
2024-01-06T04:51:37.559Z,96591.50
2024-01-06T04:54:06.108Z,96592.09
2024-01-06T04:56:36.676Z,96601.91
2024-01-06T04:59:07.650Z,96596.84
2024-01-06T05:01:36.027Z,96596.94
2024-01-06T05:04:04.446Z,96602.19
2024-01-06T05:06:32.737Z,96604.72
2024-01-06T05:09:01.008Z,96605.03
2024-01-06T05:11:29.249Z,96612.38
2024-01-06T05:13:57.438Z,96612.50
2024-01-06T05:16:27.164Z,96607.75
2024-01-06T05:18:55.434Z,96609.81
2024-01-06T05:21:24.059Z,96605.03
2024-01-06T05:23:52.208Z,96607.28
2024-01-06T05:26:20.432Z,96608.88
2024-01-06T05:28:48.684Z,96607.75
2024-01-06T05:31:17.050Z,96611.91
2024-01-06T05:33:46.806Z,96613.47
2024-01-06T05:36:15.226Z,96613.31
2024-01-06T05:38:42.557Z,96613.81
2024-01-06T05:41:10.747Z,96614.28
2024-01-06T05:43:39.466Z,96624.63
2024-01-06T05:46:07.715Z,96624.16
2024-01-06T05:48:36.324Z,96624.47
2024-01-06T05:51:06.983Z,96620.22
2024-01-06T05:53:35.178Z,96615.25
2024-01-06T05:56:03.410Z,96611.97
2024-01-06T05:58:31.710Z,96617.31
2024-01-06T06:01:00.128Z,96616.47
2024-01-06T06:03:28.486Z,96619.94
2024-01-06T06:05:56.875Z,96620.28
2024-01-06T06:08:26.432Z,96625.25
2024-01-06T06:11:02.647Z,96637.22
2024-01-06T06:13:31.124Z,96641.00
2024-01-06T06:15:59.428Z,96641.00
2024-01-06T06:18:27.859Z,96642.44
2024-01-06T06:20:56.301Z,96649.41
2024-01-06T06:23:25.918Z,96645.75
2024-01-06T06:25:54.074Z,96651.31
2024-01-06T06:28:22.297Z,96646.38
2024-01-06T06:30:50.565Z,96647.97
2024-01-06T06:33:19.382Z,96649.09
2024-01-06T06:35:47.702Z,96653.72
2024-01-06T06:38:15.944Z,96669.72
2024-01-06T06:40:45.477Z,96677.81
2024-01-06T06:43:14.670Z,96681.78
2024-01-06T06:45:43.996Z,96685.63
2024-01-06T06:48:12.313Z,96677.69
2024-01-06T06:50:42.040Z,96690.53
2024-01-06T06:53:10.503Z,96685.44
2024-01-06T06:55:39.282Z,96689.53
2024-01-06T06:58:09.136Z,96698.16
2024-01-06T07:00:37.996Z,96701.63
2024-01-06T07:03:06.641Z,96715.28
2024-01-06T07:05:34.978Z,96718.28
2024-01-06T07:08:03.718Z,96728.16
2024-01-06T07:10:32.034Z,96730.22
2024-01-06T07:13:00.234Z,96726.56
2024-01-06T07:15:29.851Z,96732.75
2024-01-06T07:17:58.129Z,96729.25
2024-01-06T07:20:26.348Z,96734.66
2024-01-06T07:22:54.625Z,96733.69
2024-01-06T07:25:23.158Z,96745.75
2024-01-06T07:27:54.460Z,96737.06
2024-01-06T07:30:23.996Z,96741.78
2024-01-06T07:32:53.732Z,96744.97
2024-01-06T07:35:22.206Z,96754.16
2024-01-06T07:37:50.551Z,96756.25
2024-01-06T07:40:18.723Z,96757.84
2024-01-06T07:42:49.544Z,96744.97
2024-01-06T07:45:17.804Z,96756.06
2024-01-06T07:47:46.032Z,96751.94
2024-01-06T07:50:15.664Z,96762.28
2024-01-06T07:52:43.893Z,96760.03
2024-01-06T07:55:12.088Z,96765.94
2024-01-06T07:57:40.308Z,96762.75
2024-01-06T08:00:10.232Z,96769.59
2024-01-06T08:02:41.518Z,96775.00
2024-01-06T08:05:10.809Z,96765.44
2024-01-06T08:07:41.133Z,96759.91
2024-01-06T08:10:10.720Z,96760.22
2024-01-06T08:12:39.164Z,96756.56
2024-01-06T08:15:09.536Z,96763.69
2024-01-06T08:17:38.470Z,96770.72
2024-01-06T08:20:07.830Z,96773.38
2024-01-06T08:22:36.028Z,96780.53
2024-01-06T08:25:08.437Z,96780.22
2024-01-06T08:27:36.777Z,96790.06
2024-01-06T08:30:06.191Z,96794.03
2024-01-06T08:32:34.624Z,96787.69
2024-01-06T08:35:03.423Z,96790.56
2024-01-06T08:37:31.777Z,96789.13
2024-01-06T08:39:59.953Z,96787.53
2024-01-06T08:42:29.646Z,96786.91
2024-01-06T08:44:57.837Z,96797.19
2024-01-06T08:47:26.216Z,96794.94
2024-01-06T08:49:54.528Z,96800.06
2024-01-06T08:52:22.758Z,96804.19
2024-01-06T08:54:51.116Z,96808.34
2024-01-06T08:57:19.968Z,96818.81
2024-01-06T08:59:49.512Z,96809.59
2024-01-06T09:02:17.696Z,96817.06
2024-01-06T09:04:46.991Z,96821.19
2024-01-06T09:07:15.407Z,96822.63
2024-01-06T09:09:43.591Z,96831.19
2024-01-06T09:12:12.491Z,96815.00
2024-01-06T09:14:41.797Z,96825.00
2024-01-06T09:17:11.358Z,96816.72
2024-01-06T09:19:39.598Z,96820.69
2024-01-06T09:22:07.753Z,96827.72
2024-01-06T09:24:35.973Z,96823.25
2024-01-06T09:27:04.589Z,96824.63
2024-01-06T09:29:33.898Z,96838.31
2024-01-06T09:32:02.029Z,96831.34
2024-01-06T09:34:31.739Z,96831.19
2024-01-06T09:37:00.197Z,96829.47
2024-01-06T09:39:28.509Z,96836.44
2024-01-06T09:41:56.758Z,96838.16
2024-01-06T09:44:25.088Z,96829.91
2024-01-06T09:46:53.651Z,96838.16
2024-01-06T09:49:26.366Z,96840.69
2024-01-06T09:52:01.470Z,96826.56
2024-01-06T09:54:35.749Z,96830.03
2024-01-06T09:57:08.012Z,96829.31
2024-01-06T09:59:37.951Z,96828.97
2024-01-06T10:02:06.796Z,96837.16
2024-01-06T10:04:35.096Z,96833.16
2024-01-06T10:07:04.949Z,96835.59
2024-01-06T10:09:33.455Z,96826.47
2024-01-06T10:12:01.679Z,96830.44
2024-01-06T10:14:29.816Z,96830.47
2024-01-06T10:16:57.956Z,96828.44
2024-01-06T10:19:26.674Z,96824.97
2024-01-06T10:21:55.230Z,96825.72
2024-01-06T10:24:24.823Z,96827.59
2024-01-06T10:26:53.031Z,96838.78
2024-01-06T10:29:21.195Z,96833.47
2024-01-06T10:31:54.683Z,96836.38
2024-01-06T10:34:24.014Z,96840.72
2024-01-06T10:36:53.858Z,96835.13
2024-01-06T10:39:24.093Z,96838.94
2024-01-06T10:41:54.120Z,96838.91
2024-01-06T10:44:24.167Z,96842.50
2024-01-06T10:46:53.463Z,96842.56
2024-01-06T10:49:24.495Z,96845.53
2024-01-06T10:51:56.162Z,96847.53
2024-01-06T10:54:29.266Z,96843.41
2024-01-06T10:57:01.370Z,96837.25
2024-01-06T10:59:35.074Z,96836.25
2024-01-06T11:02:04.330Z,96838.03
2024-01-06T11:04:33.575Z,96834.00
2024-01-06T11:07:02.576Z,96827.81
2024-01-06T11:09:39.445Z,96824.72
2024-01-06T11:12:10.151Z,96820.28
2024-01-06T11:14:39.866Z,96817.09
2024-01-06T11:17:11.684Z,96818.50
2024-01-06T11:19:48.668Z,96809.47
2024-01-06T11:22:30.508Z,96803.25
2024-01-06T11:25:08.304Z,96803.59
2024-01-06T11:27:38.601Z,96811.69
2024-01-06T11:30:08.798Z,96811.22
2024-01-06T11:32:39.797Z,96810.56
2024-01-06T11:35:11.679Z,96807.84
2024-01-06T11:37:56.033Z,96808.91
2024-01-06T11:40:35.488Z,96814.78
2024-01-06T11:43:07.315Z,96813.97
2024-01-06T11:45:37.469Z,96809.66
2024-01-06T11:48:08.467Z,96812.09
2024-01-06T11:50:39.268Z,96811.66
2024-01-06T11:53:10.941Z,96813.22
2024-01-06T11:55:43.614Z,96814.47
2024-01-06T11:58:12.131Z,96810.03
2024-01-06T12:00:41.962Z,96812.66
2024-01-06T12:03:11.120Z,96810.56
2024-01-06T12:05:39.584Z,96808.50
2024-01-06T12:08:09.363Z,96807.78
2024-01-06T12:10:37.976Z,96809.44
2024-01-06T12:13:10.840Z,96802.25
2024-01-06T12:15:40.459Z,96809.25
2024-01-06T12:18:09.643Z,96810.66
2024-01-06T12:20:38.166Z,96809.72
2024-01-06T12:23:06.969Z,96805.59
2024-01-06T12:25:39.884Z,96810.88
2024-01-06T12:28:10.644Z,96814.50
2024-01-06T12:30:41.456Z,96807.66
2024-01-06T12:33:10.161Z,96811.97
2024-01-06T12:35:38.724Z,96815.31
2024-01-06T12:38:08.876Z,96812.28
2024-01-06T12:40:38.621Z,96807.53
2024-01-06T12:43:07.832Z,96805.16
2024-01-06T12:45:37.715Z,96798.47
2024-01-06T12:48:07.084Z,96793.88
2024-01-06T12:50:35.347Z,96789.59
2024-01-06T12:53:03.612Z,96790.19
2024-01-06T12:55:31.855Z,96789.06
2024-01-06T12:58:03.058Z,96783.03
2024-01-06T13:00:35.438Z,96778.75
2024-01-06T13:03:06.911Z,96787.66
2024-01-06T13:05:35.236Z,96779.22
2024-01-06T13:08:04.275Z,96782.75
2024-01-06T13:10:32.585Z,96786.91
2024-01-06T13:13:00.830Z,96783.06
2024-01-06T13:15:29.161Z,96783.53
2024-01-06T13:17:58.165Z,96786.09
2024-01-06T13:20:27.853Z,96790.78
2024-01-06T13:22:56.438Z,96794.78
2024-01-06T13:25:24.643Z,96796.56
2024-01-06T13:27:53.281Z,96801.44
2024-01-06T13:30:21.910Z,96808.00
2024-01-06T13:32:51.768Z,96803.81
2024-01-06T13:35:20.177Z,96806.38
2024-01-06T13:37:52.386Z,96811.00
2024-01-06T13:40:20.821Z,96814.47
2024-01-06T13:42:49.492Z,96816.19
2024-01-06T13:45:18.095Z,96820.53
2024-01-06T13:47:46.902Z,96823.50
2024-01-06T13:50:18.057Z,96817.97
2024-01-06T13:52:47.213Z,96815.38
2024-01-06T13:55:17.073Z,96822.34
2024-01-06T13:57:45.396Z,96818.50
2024-01-06T14:00:20.727Z,96821.59
2024-01-06T14:02:49.923Z,96819.31
2024-01-06T14:05:20.328Z,96829.44
2024-01-06T14:07:51.053Z,96823.22
2024-01-06T14:10:20.975Z,96831.53
2024-01-06T14:12:49.502Z,96824.81
2024-01-06T14:15:18.227Z,96821.31
2024-01-06T14:17:50.610Z,96817.69
2024-01-06T14:20:19.919Z,96821.66
2024-01-06T14:22:49.205Z,96830.19
2024-01-06T14:25:19.605Z,96827.66
2024-01-06T14:27:49.463Z,96832.09
2024-01-06T14:30:18.168Z,96833.59
2024-01-06T14:32:46.629Z,96833.59
2024-01-06T14:35:15.598Z,96838.22
2024-01-06T14:37:45.071Z,96839.16
2024-01-06T14:40:14.584Z,96836.44
2024-01-06T14:42:42.962Z,96836.59
2024-01-06T14:45:13.301Z,96840.25
2024-01-06T14:47:42.582Z,96842.78
2024-01-06T14:50:11.185Z,96846.91
2024-01-06T14:52:39.465Z,96849.13
2024-01-06T14:55:09.028Z,96849.28
2024-01-06T14:57:37.324Z,96860.13
2024-01-06T15:00:07.964Z,96853.09
2024-01-06T15:02:37.487Z,96856.94
2024-01-06T15:05:07.917Z,96853.94
2024-01-06T15:07:36.236Z,96855.66
2024-01-06T15:10:06.577Z,96852.50
2024-01-06T15:12:35.074Z,96856.00
2024-01-06T15:15:03.598Z,96851.38
2024-01-06T15:17:31.998Z,96855.03
2024-01-06T15:20:01.565Z,96857.41
2024-01-06T15:22:30.564Z,96858.84
2024-01-06T15:25:06.616Z,96857.72
2024-01-06T15:27:35.668Z,96865.50
2024-01-06T15:30:07.882Z,96865.50
2024-01-06T15:32:37.334Z,96869.31
2024-01-06T15:35:07.863Z,96873.44
2024-01-06T15:37:36.071Z,96870.56
2024-01-06T15:40:05.085Z,96873.31
2024-01-06T15:42:33.881Z,96874.09
2024-01-06T15:45:02.385Z,96871.22
2024-01-06T15:47:30.624Z,96875.66
2024-01-06T15:49:58.959Z,96877.75
2024-01-06T15:52:28.593Z,96876.75
2024-01-06T15:54:57.478Z,96878.16
2024-01-06T15:57:25.783Z,96873.09
2024-01-06T15:59:55.183Z,96880.88
2024-01-06T16:02:23.355Z,96875.13
2024-01-06T16:04:51.618Z,96870.53
2024-01-06T16:07:21.037Z,96877.22
2024-01-06T16:09:50.685Z,96879.53
2024-01-06T16:12:19.337Z,96882.47
2024-01-06T16:14:47.510Z,96880.22
2024-01-06T16:17:17.427Z,96874.19
2024-01-06T16:19:45.608Z,96873.72
2024-01-06T16:22:17.644Z,96868.66
2024-01-06T16:24:46.984Z,96876.03
2024-01-06T16:27:16.579Z,96885.75
2024-01-06T16:29:44.798Z,96888.41
2024-01-06T16:32:13.064Z,96891.28
2024-01-06T16:34:42.600Z,96886.84
2024-01-06T16:37:11.953Z,96888.63
2024-01-06T16:39:40.232Z,96888.91
2024-01-06T16:42:08.870Z,96897.81
2024-01-06T16:44:38.439Z,96899.88
2024-01-06T16:47:07.878Z,96893.31
2024-01-06T16:49:36.719Z,96895.94
2024-01-06T16:52:05.880Z,96894.06
2024-01-06T16:54:34.175Z,96896.06
2024-01-06T16:57:04.196Z,96906.34
2024-01-06T16:59:34.637Z,96900.34
2024-01-06T17:02:04.949Z,96897.03
2024-01-06T17:04:36.117Z,96898.25
2024-01-06T17:07:05.473Z,96902.06
2024-01-06T17:09:33.992Z,96905.75
2024-01-06T17:12:02.223Z,96897.13
2024-01-06T17:14:30.443Z,96914.13
2024-01-06T17:16:58.963Z,96908.88
2024-01-06T17:19:28.722Z,96920.03
2024-01-06T17:21:57.070Z,96913.06
2024-01-06T17:24:25.614Z,96914.66
2024-01-06T17:26:54.202Z,96917.59
2024-01-06T17:29:22.400Z,96920.69
2024-01-06T17:31:51.281Z,96921.78
2024-01-06T17:34:20.058Z,96920.56
2024-01-06T17:36:49.849Z,96919.78
2024-01-06T17:39:18.482Z,96926.09
2024-01-06T17:41:56.897Z,96935.97
2024-01-06T17:44:28.082Z,96926.59
2024-01-06T17:46:56.328Z,96930.00
2024-01-06T17:49:24.695Z,96926.25
2024-01-06T17:51:54.405Z,96942.81
2024-01-06T17:54:22.731Z,96930.44
2024-01-06T17:56:51.109Z,96931.72
2024-01-06T17:59:19.290Z,96927.91
2024-01-06T18:01:47.596Z,96931.50
2024-01-06T18:04:16.106Z,96931.25
2024-01-06T18:06:45.096Z,96939.38
2024-01-06T18:09:19.018Z,96929.50
2024-01-06T18:11:48.726Z,96935.59
2024-01-06T18:14:17.234Z,96929.63
2024-01-06T18:16:45.516Z,96931.91
2024-01-06T18:19:13.850Z,96935.84
2024-01-06T18:21:42.116Z,96939.53
2024-01-06T18:24:10.486Z,96935.91
2024-01-06T18:26:40.106Z,96934.41
2024-01-06T18:29:08.733Z,96939.69
2024-01-06T18:31:37.034Z,96936.94
2024-01-06T18:34:05.404Z,96940.97
2024-01-06T18:36:33.688Z,96930.75
2024-01-06T18:39:01.859Z,96935.47
2024-01-06T18:41:30.100Z,96933.44
2024-01-06T18:43:59.632Z,96939.38
2024-01-06T18:46:27.937Z,96939.66
2024-01-06T18:48:56.254Z,96940.91
2024-01-06T18:51:24.567Z,96931.09
2024-01-06T18:53:52.753Z,96930.19
2024-01-06T18:56:21.061Z,96930.94
2024-01-06T18:58:50.824Z,96929.88
2024-01-06T19:01:23.056Z,96931.59
2024-01-06T19:03:51.483Z,96934.19
2024-01-06T19:06:19.824Z,96929.28
2024-01-06T19:08:48.041Z,96937.13
2024-01-06T19:11:16.306Z,96939.34
2024-01-06T19:13:45.655Z,96932.59
2024-01-06T19:16:14.190Z,96933.19
2024-01-06T19:18:43.978Z,96940.22
2024-01-06T19:21:14.681Z,96935.03
2024-01-06T19:23:43.194Z,96941.94
2024-01-06T19:26:11.459Z,96945.25
2024-01-06T19:28:39.747Z,96948.78
2024-01-06T19:31:10.917Z,96940.19
2024-01-06T19:33:39.445Z,96937.91
2024-01-06T19:36:12.098Z,96933.66
2024-01-06T19:38:40.414Z,96941.72
2024-01-06T19:41:08.679Z,96930.44
2024-01-06T19:43:37.063Z,96936.97
2024-01-06T19:46:11.731Z,96931.13
2024-01-06T19:48:40.161Z,96933.41
2024-01-06T19:51:09.751Z,96935.03
2024-01-06T19:53:38.201Z,96934.03
2024-01-06T19:56:07.042Z,96933.50
2024-01-06T19:58:35.348Z,96931.44
2024-01-06T20:01:03.611Z,96933.50
2024-01-06T20:03:31.959Z,96928.03
2024-01-06T20:06:00.482Z,96928.28
2024-01-06T20:08:30.662Z,96927.53
2024-01-06T20:11:01.463Z,96928.63
2024-01-06T20:13:30.543Z,96936.59
2024-01-06T20:15:59.861Z,96930.88
2024-01-06T20:18:30.360Z,96929.94
2024-01-06T20:20:59.129Z,96925.97
2024-01-06T20:23:28.776Z,96935.34
2024-01-06T20:25:58.314Z,96928.25
2024-01-06T20:28:26.497Z,96932.06
2024-01-06T20:30:54.954Z,96931.69
2024-01-06T20:33:23.552Z,96934.00
2024-01-06T20:35:52.038Z,96924.59
2024-01-06T20:38:22.556Z,96922.22
2024-01-06T20:40:53.577Z,96927.66
2024-01-06T20:43:21.824Z,96927.38
2024-01-06T20:45:53.039Z,96923.94
2024-01-06T20:48:21.601Z,96924.78
2024-01-06T20:50:49.997Z,96920.31
2024-01-06T20:53:18.178Z,96923.81
2024-01-06T20:55:46.348Z,96913.66
2024-01-06T20:58:15.917Z,96917.72
2024-01-06T21:00:44.393Z,96919.66
2024-01-06T21:03:12.814Z,96914.13
2024-01-06T21:05:42.283Z,96920.28
2024-01-06T21:08:10.665Z,96921.44
2024-01-06T21:10:38.938Z,96923.38
2024-01-06T21:13:07.160Z,96924.44
2024-01-06T21:15:36.766Z,96924.44
2024-01-06T21:18:05.404Z,96924.25
2024-01-06T21:20:34.216Z,96927.69
2024-01-06T21:23:03.984Z,96925.09
2024-01-06T21:25:32.229Z,96918.66
2024-01-06T21:28:00.875Z,96917.38
2024-01-06T21:30:29.300Z,96919.03
2024-01-06T21:33:02.137Z,96909.31
2024-01-06T21:35:31.864Z,96917.94
2024-01-06T21:38:00.556Z,96917.94
2024-01-06T21:40:29.029Z,96915.56
2024-01-06T21:42:57.323Z,96917.03
2024-01-06T21:45:25.665Z,96910.25
2024-01-06T21:47:56.875Z,96916.28
2024-01-06T21:50:26.474Z,96919.78
2024-01-06T21:52:54.667Z,96910.75
2024-01-06T21:55:24.261Z,96913.22
2024-01-06T21:57:52.620Z,96911.69
2024-01-06T22:00:21.022Z,96918.84
2024-01-06T22:02:51.970Z,96916.22
2024-01-06T22:05:20.306Z,96921.38
2024-01-06T22:07:49.883Z,96928.25
2024-01-06T22:10:18.257Z,96926.25
2024-01-06T22:12:46.514Z,96923.69
2024-01-06T22:15:15.931Z,96926.19
2024-01-06T22:17:44.348Z,96922.59
2024-01-06T22:20:13.767Z,96922.13
2024-01-06T22:22:42.036Z,96925.72
2024-01-06T22:25:12.031Z,96933.00
2024-01-06T22:27:40.339Z,96929.56
2024-01-06T22:30:10.232Z,96923.69
2024-01-06T22:32:41.125Z,96928.78
2024-01-06T22:35:10.211Z,96928.34
2024-01-06T22:37:38.886Z,96916.84
2024-01-06T22:40:10.027Z,96916.47
2024-01-06T22:42:39.632Z,96913.75
2024-01-06T22:45:08.645Z,96920.44
2024-01-06T22:47:36.910Z,96918.06
2024-01-06T22:50:05.839Z,96922.38
2024-01-06T22:52:34.068Z,96919.00
2024-01-06T22:55:02.333Z,96925.25
2024-01-06T22:57:31.007Z,96927.44
2024-01-06T23:00:00.655Z,96924.56
2024-01-06T23:02:28.864Z,96920.59
2024-01-06T23:04:59.082Z,96918.38
2024-01-06T23:07:28.346Z,96933.31
2024-01-06T23:09:56.552Z,96926.16
2024-01-06T23:12:24.812Z,96925.59
2024-01-06T23:14:53.036Z,96932.63
2024-01-06T23:17:22.643Z,96933.41
2024-01-06T23:19:51.364Z,96933.31
2024-01-06T23:22:19.677Z,96938.41
2024-01-06T23:24:47.886Z,96931.59
2024-01-06T23:27:16.209Z,96936.03
2024-01-06T23:29:44.409Z,96944.50
2024-01-06T23:32:12.568Z,96941.09
2024-01-06T23:34:43.207Z,96939.34
2024-01-06T23:37:11.801Z,96940.31
2024-01-06T23:39:40.311Z,96939.69
2024-01-06T23:42:10.591Z,96943.53
2024-01-06T23:44:38.905Z,96940.31
2024-01-06T23:47:07.553Z,96945.94
2024-01-06T23:49:38.033Z,96947.13
2024-01-06T23:52:08.057Z,96941.41
2024-01-06T23:54:40.587Z,96943.06
2024-01-06T23:57:09.519Z,96949.31
2024-01-06T23:59:42.011Z,96948.69
